Airfield :
LOGIN :

Register | Disclaimer

   EN    FR    IT 

 










Legend :    VFR   Marginal VFR   IFR   Intensive IFR   Very Intensive IFR
Visi :
Ceiling :
>= 8 km
>= 3000ft
5 to 8 km
1000 to 3000 ft
1500m to 5 km
500 to 1000 ft
800 to 1500m
200 to 500 ft
< 800m
< 200 ft
Symbols :   Thunderstorms  Fog  Heavy snow  Heavy precipitations  Wind > 20 kt
SIGMETs :     Misc.  Thunderstorms  Icing  Turbulence  Mountain Waves  Volcanic Ashes







- Airport Elevation : 53 ft
- IATA code : HAM


EDDH - Hamburg

CURRENT METAR :
  • 170720Z 23006KT CAVOK 14/12 Q1019 NOSIG

EXPIRED METARs :
  • 170650Z 22006KT CAVOK 14/12 Q1019 NOSIG
  • 170620Z 21005KT CAVOK 13/12 Q1019 NOSIG
  • 170550Z 21005KT 9999 FEW026 BKN250 13/12 Q1019 NOSIG
  • 170520Z 21005KT 9999 FEW026 BKN270 14/12 Q1018 NOSIG
  • 170450Z 22005KT CAVOK 14/12 Q1019 NOSIG

TAF TAF EDDH
Valid from the 17 at 06:00 until the 18 at 12:00 UTC


170500Z 1706/1812 22007KT CAVOK
BECMG 1707/1709 24012KT
BECMG 1716/1718 23004KT
No reported NOTAMs for that airfield.



MET'MAP, your aeronautical weather chart ! - Copyright ORBIFLY December 2007 - Disclaimer

ORBIFLY MET'MAP TEAM :

Programming & Development : Alexandra Zaïnal
Concept & Development : Baudouin d'Aumeries
Co-Development & Prog : Marc-Olivier Méhu
Technical & hardware support : Manuel Goepfert

Contact : metmap@orbifly.com




SOURCES & CREDITS :

   NOAA